createdAt,value
2023-04-16T00:02:46.599Z,6.53
2023-04-16T00:07:51.771Z,6.95
2023-04-16T00:12:54.357Z,7.93
2023-04-16T00:17:57.092Z,7.22
2023-04-16T00:22:59.847Z,6.97
2023-04-16T00:28:02.583Z,6.95
2023-04-16T00:33:05.759Z,7.78
2023-04-16T00:38:08.483Z,7.80
2023-04-16T00:43:11.168Z,7.03
2023-04-16T00:48:14.220Z,6.33
2023-04-16T00:53:17.288Z,6.07
2023-04-16T00:58:20.597Z,6.20
2023-04-16T01:03:24.520Z,6.03
2023-04-16T01:08:27.413Z,5.95
2023-04-16T01:13:30.493Z,6.50
2023-04-16T01:18:33.203Z,6.85
2023-04-16T01:23:35.939Z,5.22
2023-04-16T01:28:38.983Z,5.83
2023-04-16T01:33:41.909Z,6.32
2023-04-16T01:38:47.347Z,5.63
2023-04-16T01:43:49.984Z,6.25
2023-04-16T01:48:56.787Z,4.82
2023-04-16T01:53:59.813Z,5.50
2023-04-16T01:59:02.752Z,5.18
2023-04-16T02:04:12.060Z,5.17
2023-04-16T02:09:15.047Z,5.05
2023-04-16T02:14:17.704Z,4.03
2023-04-16T02:19:20.734Z,4.93
2023-04-16T02:24:23.339Z,4.65
2023-04-16T02:29:26.322Z,4.40
2023-04-16T02:34:40.398Z,4.20
2023-04-16T02:39:44.203Z,4.82
2023-04-16T02:44:47.166Z,4.67
2023-04-16T02:49:49.850Z,4.75
2023-04-16T02:54:52.510Z,4.57
2023-04-16T02:59:55.371Z,4.30
2023-04-16T03:04:58.221Z,4.10
2023-04-16T03:10:01.003Z,3.87
2023-04-16T03:15:03.854Z,4.68
2023-04-16T03:20:07.702Z,4.27
2023-04-16T03:25:10.346Z,4.35
2023-04-16T03:30:13.843Z,4.60
2023-04-16T03:35:16.845Z,3.93
2023-04-16T03:40:20.272Z,4.10
2023-04-16T03:45:22.979Z,4.63
2023-04-16T03:50:26.977Z,4.15
2023-04-16T03:55:29.747Z,3.70
2023-04-16T04:00:33.257Z,5.30
2023-04-16T04:05:43.280Z,4.15
2023-04-16T04:10:48.857Z,4.87
2023-04-16T04:15:51.982Z,4.43
2023-04-16T04:20:55.524Z,3.92
2023-04-16T04:26:05.778Z,3.60
2023-04-16T04:31:08.613Z,3.90
2023-04-16T04:36:11.848Z,4.87
2023-04-16T04:41:14.648Z,5.22
2023-04-16T04:46:17.415Z,5.00
2023-04-16T04:51:20.435Z,5.87
2023-04-16T04:56:23.420Z,5.70
2023-04-16T05:01:26.381Z,6.00
2023-04-16T05:06:29.658Z,5.22
2023-04-16T05:11:34.787Z,5.00
2023-04-16T05:16:38.103Z,4.90
2023-04-16T05:21:40.925Z,4.75
2023-04-16T05:26:44.061Z,4.33
2023-04-16T05:31:47.031Z,3.70
2023-04-16T05:36:49.728Z,4.35
2023-04-16T05:41:52.610Z,3.43
2023-04-16T05:46:55.519Z,3.90
2023-04-16T05:51:58.220Z,4.40
2023-04-16T05:57:01.887Z,3.33
2023-04-16T06:02:04.798Z,3.70
2023-04-16T06:07:07.772Z,4.03
2023-04-16T06:12:12.655Z,4.15
2023-04-16T06:17:16.945Z,5.27
2023-04-16T06:22:19.697Z,4.57
2023-04-16T06:27:22.456Z,4.47
2023-04-16T06:32:26.325Z,5.47
2023-04-16T06:37:29.163Z,5.75
2023-04-16T06:42:32.264Z,5.73
2023-04-16T06:47:35.484Z,5.40
2023-04-16T06:52:38.548Z,5.40
2023-04-16T06:57:41.372Z,4.43
2023-04-16T07:02:44.377Z,4.22
2023-04-16T07:07:47.162Z,5.57
2023-04-16T07:12:50.136Z,5.28
2023-04-16T07:17:53.088Z,6.30
2023-04-16T07:22:55.871Z,4.13
2023-04-16T07:27:58.718Z,6.70
2023-04-16T07:33:04.714Z,6.50
2023-04-16T07:38:07.416Z,7.57
2023-04-16T07:43:10.878Z,8.30
2023-04-16T07:48:13.807Z,6.67
2023-04-16T07:53:16.505Z,7.80
2023-04-16T07:58:19.248Z,7.70
2023-04-16T08:03:22.113Z,7.50
2023-04-16T08:08:24.898Z,7.72
2023-04-16T08:13:27.761Z,6.63
2023-04-16T08:18:30.436Z,5.97
2023-04-16T08:23:33.664Z,6.13
2023-04-16T08:28:36.334Z,5.30
2023-04-16T08:33:40.616Z,3.13
2023-04-16T08:38:43.325Z,2.87
2023-04-16T08:43:48.969Z,4.50
2023-04-16T08:48:56.286Z,2.67
2023-04-16T08:54:04.835Z,2.60
2023-04-16T08:59:08.057Z,3.03
2023-04-16T09:04:11.381Z,2.70
2023-04-16T09:09:16.553Z,3.00
2023-04-16T09:14:19.455Z,2.47
2023-04-16T09:19:22.175Z,2.00
2023-04-16T09:24:27.002Z,2.10
2023-04-16T09:29:41.132Z,2.03
2023-04-16T09:35:04.542Z,2.85
2023-04-16T09:40:08.853Z,2.90
2023-04-16T09:45:11.897Z,2.35
2023-04-16T09:50:19.702Z,2.08
2023-04-16T09:55:28.295Z,3.37
2023-04-16T10:00:31.876Z,3.30
2023-04-16T10:05:34.585Z,3.00
2023-04-16T10:10:37.477Z,2.53
2023-04-16T10:15:41.068Z,2.20
2023-04-16T10:20:44.780Z,2.33
2023-04-16T10:25:49.364Z,3.00
2023-04-16T10:30:53.583Z,2.50
2023-04-16T10:36:13.202Z,2.50
2023-04-16T10:41:16.287Z,2.92
2023-04-16T10:46:38.027Z,2.20
2023-04-16T10:51:41.270Z,2.60
2023-04-16T10:56:45.908Z,1.97
2023-04-16T11:01:54.419Z,2.05
2023-04-16T11:07:15.187Z,2.15
2023-04-16T11:12:24.200Z,1.97
2023-04-16T11:17:32.192Z,2.35
2023-04-16T11:22:37.194Z,2.10
2023-04-16T11:27:40.075Z,1.98
2023-04-16T11:32:45.259Z,2.03
2023-04-16T11:37:51.483Z,1.80
2023-04-16T11:42:54.167Z,2.10
2023-04-16T11:47:58.108Z,1.80
2023-04-16T11:53:06.135Z,1.85
2023-04-16T11:58:13.471Z,1.90
2023-04-16T12:03:17.303Z,2.00
2023-04-16T12:08:31.203Z,1.70
2023-04-16T12:13:40.381Z,1.83
2023-04-16T12:19:01.567Z,1.95
2023-04-16T12:24:04.893Z,2.08
2023-04-16T12:29:25.104Z,1.80
2023-04-16T12:34:36.547Z,1.60
2023-04-16T12:39:50.842Z,1.80
2023-04-16T12:44:53.544Z,1.70
2023-04-16T12:49:58.155Z,1.58
2023-04-16T12:55:03.153Z,1.60
2023-04-16T13:00:07.006Z,1.63
2023-04-16T13:05:09.934Z,1.47
2023-04-16T13:10:13.544Z,1.60
2023-04-16T13:15:16.444Z,1.58
2023-04-16T13:20:19.223Z,1.53
2023-04-16T13:25:22.101Z,1.50
2023-04-16T13:30:25.762Z,1.50
2023-04-16T13:35:29.629Z,1.50
2023-04-16T13:40:32.525Z,1.50
2023-04-16T13:45:35.544Z,1.30
2023-04-16T13:50:38.225Z,1.50
2023-04-16T13:55:41.363Z,1.37
2023-04-16T14:00:44.223Z,1.58
2023-04-16T14:05:46.993Z,1.30
2023-04-16T14:10:49.821Z,1.30
2023-04-16T14:15:55.949Z,1.45
2023-04-16T14:20:59.042Z,1.47
2023-04-16T14:26:01.814Z,1.58
2023-04-16T14:31:04.492Z,1.92
2023-04-16T14:36:07.379Z,2.00
2023-04-16T14:41:11.004Z,1.80
2023-04-16T14:46:13.791Z,1.90
2023-04-16T14:51:16.563Z,1.70
2023-04-16T14:56:19.311Z,1.58
2023-04-16T15:01:22.101Z,1.60
2023-04-16T15:06:25.230Z,1.90
2023-04-16T15:11:28.764Z,1.90
2023-04-16T15:16:31.468Z,1.90
2023-04-16T15:21:34.425Z,1.70
2023-04-16T15:26:37.188Z,1.53
2023-04-16T15:31:40.136Z,2.00
2023-04-16T15:36:43.191Z,1.73
2023-04-16T15:41:59.727Z,1.67
2023-04-16T15:47:06.495Z,2.10
2023-04-16T15:52:12.244Z,2.13
2023-04-16T15:57:14.978Z,2.35
2023-04-16T16:02:17.876Z,2.00
2023-04-16T16:07:21.409Z,2.30
2023-04-16T16:12:24.217Z,2.70
2023-04-16T16:17:27.106Z,2.40
2023-04-16T16:22:30.173Z,2.80
2023-04-16T16:27:32.855Z,2.77
2023-04-16T16:32:35.658Z,2.60
2023-04-16T16:37:38.964Z,2.40
2023-04-16T16:42:41.795Z,2.30
2023-04-16T16:47:44.600Z,1.95
2023-04-16T16:52:47.375Z,2.20
2023-04-16T16:57:50.363Z,2.33
2023-04-16T17:02:53.313Z,2.80
2023-04-16T17:07:56.216Z,2.87
2023-04-16T17:12:59.075Z,2.72
2023-04-16T17:18:01.857Z,3.00
2023-04-16T17:23:04.570Z,3.47
2023-04-16T17:28:07.460Z,3.40
2023-04-16T17:33:10.283Z,2.93
2023-04-16T17:38:12.983Z,3.60
2023-04-16T17:43:15.849Z,3.00
2023-04-16T17:48:18.593Z,3.60
2023-04-16T17:53:21.388Z,3.67
2023-04-16T17:58:26.593Z,4.30
2023-04-16T18:03:29.977Z,4.78
2023-04-16T18:08:34.025Z,4.97
2023-04-16T18:13:37.134Z,5.15
2023-04-16T18:18:39.981Z,5.45
2023-04-16T18:23:42.789Z,5.33
2023-04-16T18:28:45.603Z,5.50
2023-04-16T18:33:57.591Z,5.87
2023-04-16T18:39:02.640Z,7.55
2023-04-16T18:44:05.653Z,7.93
2023-04-16T18:49:08.386Z,8.53
2023-04-16T18:54:11.595Z,10.85
2023-04-16T18:59:14.421Z,12.10
2023-04-16T19:04:17.231Z,11.90
2023-04-16T19:09:21.043Z,11.20
2023-04-16T19:14:23.889Z,9.37
2023-04-16T19:19:26.929Z,8.95
2023-04-16T19:24:30.293Z,8.13
2023-04-16T19:29:35.323Z,8.38
2023-04-16T19:34:38.242Z,8.57
2023-04-16T19:39:41.055Z,7.47
2023-04-16T19:44:43.788Z,7.93
2023-04-16T19:49:46.754Z,7.43
2023-04-16T19:54:49.445Z,7.18
2023-04-16T19:59:54.620Z,7.80
2023-04-16T20:04:58.017Z,8.37
2023-04-16T20:10:01.071Z,9.55
2023-04-16T20:15:04.732Z,9.20
2023-04-16T20:20:10.444Z,8.98
2023-04-16T20:25:14.657Z,9.63
2023-04-16T20:30:17.638Z,9.20
2023-04-16T20:35:20.423Z,8.55
2023-04-16T20:40:24.285Z,8.57
2023-04-16T20:45:32.591Z,8.52
2023-04-16T20:50:35.563Z,8.55
2023-04-16T20:55:38.664Z,8.90
2023-04-16T21:00:41.828Z,9.45
2023-04-16T21:05:52.246Z,9.00
2023-04-16T21:10:55.116Z,8.35
2023-04-16T21:15:58.004Z,9.25
2023-04-16T21:21:01.176Z,8.67
2023-04-16T21:26:03.927Z,8.55
2023-04-16T21:31:06.788Z,9.70
2023-04-16T21:36:10.718Z,9.43
2023-04-16T21:41:13.557Z,10.45
2023-04-16T21:46:16.298Z,9.07
2023-04-16T21:51:20.356Z,9.20
2023-04-16T21:56:24.323Z,9.90
2023-04-16T22:01:27.641Z,9.18
2023-04-16T22:11:15.787Z,9.13
2023-04-16T22:16:18.730Z,9.27
2023-04-16T22:21:21.570Z,9.10
2023-04-16T22:26:24.753Z,8.53
2023-04-16T22:31:27.510Z,8.57
2023-04-16T22:36:30.377Z,8.63
2023-04-16T22:41:33.507Z,7.88
2023-04-16T22:46:36.756Z,8.30
2023-04-16T22:51:40.460Z,7.77
2023-04-16T22:56:43.145Z,8.13
2023-04-16T23:01:45.877Z,8.50
2023-04-16T23:06:48.687Z,8.55
2023-04-16T23:11:51.288Z,8.63
2023-04-16T23:16:53.902Z,8.57
2023-04-16T23:21:56.834Z,8.57
2023-04-16T23:26:59.715Z,8.97
2023-04-16T23:32:02.498Z,9.15
2023-04-16T23:37:05.018Z,9.23
2023-04-16T23:42:07.653Z,9.07
2023-04-16T23:47:10.284Z,10.20
2023-04-16T23:52:12.952Z,8.73
2023-04-16T23:57:15.810Z,7.80
